Airfield :
LOGIN :

Register | Disclaimer

   EN    FR    IT 

 










Legend :    VFR   Marginal VFR   IFR   Intensive IFR   Very Intensive IFR
Visi :
Ceiling :
>= 8 km
>= 3000ft
5 to 8 km
1000 to 3000 ft
1500m to 5 km
500 to 1000 ft
800 to 1500m
200 to 500 ft
< 800m
< 200 ft
Symbols :   Thunderstorms  Fog  Heavy snow  Heavy precipitations  Wind > 20 kt
SIGMETs :     Misc.  Thunderstorms  Icing  Turbulence  Mountain Waves  Volcanic Ashes







- Airport Elevation : 289 ft
- Download approach charts


LFYR - Romorantin Pruniers

CURRENT METAR :
  • 240730Z AUTO 21006KT 9999 FEW012 OVC068 11/09 Q0998 TEMPO 21015G25KT 4000 RA BKN006 BKN012 BKN015CB

EXPIRED METARs :
  • 240700Z AUTO 21007KT 180V240 9999 -RA BKN042/// OVC068/// ///TCU 10/09 Q0998 TEMPO 21015G25KT 4000 RA BKN006 BKN012 BKN015CB
  • 240630Z AUTO 21008KT 190V250 9999 -RA SCT015/// SCT027/// BKN056/// ///TCU 10/09 Q0998 TEMPO 21015G25KT 4000 RA BKN006 BKN012 BKN015CB
  • 240600Z AUTO 21008KT 180V240 9999 -RA OVC012 10/09 Q0998 TEMPO 21015G25KT 4000 RA BKN006 BKN012 BKN015CB
  • 240530Z AUTO 22008KT 180V260 9999 -RA BKN014 BKN029 BKN039 11/09 Q0997 TEMPO 21015G25KT 4000 RA BKN006 BKN012 BKN015CB
  • 240500Z AUTO 23010KT 200V260 9999 BKN014 BKN058 OVC096 12/10 Q0996 TEMPO 21015G25KT 4000 RA BKN006 BKN012 BKN015CB

Expired Forecast.
No reported NOTAMs for that airfield.
1 SIGMET reported for the Paris FIR (LFFF) :
 
Severe turbulence
LFFF SIGMET 1 VALID 240700/241100 LFPW
LFFF PARIS FIR/UIR SEV TURB FCST SE OF LINE N4715 E00430 - N4630 E00400 SFC/FL080 STNR INTSF=



MET'MAP, your aeronautical weather chart ! - Copyright ORBIFLY December 2007 - Disclaimer

ORBIFLY MET'MAP TEAM :

Programming & Development : Alexandra Zaïnal
Concept & Development : Baudouin d'Aumeries
Co-Development & Prog : Marc-Olivier Méhu
Technical & hardware support : Manuel Goepfert

Contact : metmap@orbifly.com




SOURCES & CREDITS :

   NOAA